createdAt,value
2018-03-04T00:01:00.165Z,68.53
2018-03-04T00:01:59.833Z,68.72
2018-03-04T00:02:59.803Z,68.63
2018-03-04T00:03:59.880Z,68.63
2018-03-04T00:04:59.749Z,68.63
2018-03-04T00:05:59.717Z,68.63
2018-03-04T00:06:59.985Z,68.53
2018-03-04T00:07:59.708Z,68.72
2018-03-04T00:08:59.626Z,68.63
2018-03-04T00:10:59.607Z,68.53
2018-03-04T00:11:59.524Z,68.91
2018-03-04T00:12:59.510Z,68.63
2018-03-04T00:13:59.771Z,69.38
2018-03-04T00:14:59.436Z,69.38
2018-03-04T00:16:00.014Z,69.38
2018-03-04T00:16:59.369Z,69.19
2018-03-04T00:17:59.346Z,69.10
2018-03-04T00:18:59.315Z,68.82
2018-03-04T00:19:59.287Z,68.82
2018-03-04T00:20:59.546Z,68.72
2018-03-04T00:21:59.265Z,68.63
2018-03-04T00:22:59.292Z,68.63
2018-03-04T00:23:59.214Z,68.63
2018-03-04T00:24:59.131Z,68.82
2018-03-04T00:26:59.363Z,68.82
2018-03-04T00:27:59.038Z,68.47
2018-03-04T00:30:58.996Z,68.38
2018-03-04T00:32:59.182Z,68.15
2018-03-04T00:33:58.904Z,67.97
2018-03-04T00:34:58.824Z,68.44
2018-03-04T00:35:58.791Z,67.87
2018-03-04T00:36:58.759Z,67.68
2018-03-04T00:37:58.724Z,67.78
2018-03-04T00:38:58.862Z,67.87
2018-03-04T00:39:58.969Z,67.81
2018-03-04T00:40:58.630Z,68.00
2018-03-04T00:41:58.607Z,68.00
2018-03-04T00:43:58.544Z,67.91
2018-03-04T00:45:58.835Z,67.91
2018-03-04T00:47:58.422Z,67.81
2018-03-04T00:48:58.393Z,67.34
2018-03-04T00:49:58.353Z,67.53
2018-03-04T00:50:58.331Z,67.53
2018-03-04T00:51:58.341Z,67.25
2018-03-04T00:52:58.571Z,67.25
2018-03-04T00:53:58.241Z,67.25
2018-03-04T00:54:58.207Z,67.25
2018-03-04T00:55:58.168Z,67.43
2018-03-04T00:56:58.195Z,67.15
2018-03-04T00:57:58.107Z,67.06
2018-03-04T00:58:58.382Z,66.68
2018-03-04T01:00:01.086Z,66.30
2018-03-04T01:00:58.022Z,66.40
2018-03-04T01:02:58.009Z,67.34
2018-03-04T01:03:57.941Z,67.06
2018-03-04T01:04:58.193Z,67.25
2018-03-04T01:05:57.874Z,67.53
2018-03-04T01:06:57.853Z,67.15
2018-03-04T01:07:57.803Z,67.53
2018-03-04T01:08:57.874Z,67.34
2018-03-04T01:09:57.742Z,67.06
2018-03-04T01:10:58.004Z,67.06
2018-03-04T01:11:57.674Z,66.68
2018-03-04T01:12:57.650Z,66.49
2018-03-04T01:13:57.616Z,66.21
2018-03-04T01:14:57.641Z,66.40
2018-03-04T01:15:57.555Z,66.58
2018-03-04T01:17:57.801Z,66.68
2018-03-04T01:19:57.435Z,66.58
2018-03-04T01:20:57.465Z,66.87
2018-03-04T01:21:57.379Z,65.92
2018-03-04T01:23:57.671Z,65.92
2018-03-04T01:24:57.282Z,66.77
2018-03-04T01:25:57.250Z,66.87
2018-03-04T01:26:57.219Z,66.49
2018-03-04T01:27:57.193Z,66.30
2018-03-04T01:29:57.476Z,66.49
2018-03-04T01:30:57.095Z,66.49
2018-03-04T01:31:57.064Z,66.68
2018-03-04T01:33:57.002Z,66.40
2018-03-04T01:34:56.976Z,66.68
2018-03-04T01:36:57.270Z,66.77
2018-03-04T01:37:56.892Z,66.77
2018-03-04T01:38:56.857Z,66.58
2018-03-04T01:39:56.827Z,66.21
2018-03-04T01:40:56.788Z,66.40
2018-03-04T01:41:56.757Z,66.77
2018-03-04T01:42:56.787Z,66.40
2018-03-04T01:43:57.463Z,66.68
2018-03-04T01:45:56.644Z,66.40
2018-03-04T01:46:56.608Z,66.40
2018-03-04T01:47:56.587Z,66.40
2018-03-04T01:48:56.545Z,65.92
2018-03-04T01:51:56.816Z,66.49
2018-03-04T01:52:56.427Z,66.21
2018-03-04T01:53:56.402Z,66.40
2018-03-04T01:54:56.373Z,66.87
2018-03-04T01:55:56.340Z,66.02
2018-03-04T01:56:56.309Z,65.92
2018-03-04T01:57:56.330Z,65.83
2018-03-04T01:58:56.548Z,65.55
2018-03-04T01:59:56.217Z,65.92
2018-03-04T02:00:56.188Z,65.64
2018-03-04T02:01:56.157Z,65.92
2018-03-04T02:02:56.127Z,65.64
2018-03-04T02:03:56.139Z,65.64
2018-03-04T02:04:56.058Z,65.55
2018-03-04T02:05:56.336Z,65.55
2018-03-04T02:06:56.054Z,65.64
2018-03-04T02:07:55.968Z,65.64
2018-03-04T02:08:56.006Z,65.64
2018-03-04T02:09:55.907Z,66.02
2018-03-04T02:10:55.990Z,65.92
2018-03-04T02:11:55.960Z,65.92
2018-03-04T02:12:56.132Z,66.11
2018-03-04T02:13:55.798Z,65.55
2018-03-04T02:14:55.868Z,65.17
2018-03-04T02:16:55.707Z,65.64
2018-03-04T02:19:55.960Z,65.64
2018-03-04T02:20:55.585Z,65.17
2018-03-04T02:21:55.557Z,65.64
2018-03-04T02:22:55.527Z,65.92
2018-03-04T02:23:55.494Z,66.40
2018-03-04T02:24:55.568Z,67.06
2018-03-04T02:28:55.346Z,68.10
2018-03-04T02:29:55.308Z,68.29
2018-03-04T02:30:55.279Z,68.47
2018-03-04T02:31:55.610Z,67.91
2018-03-04T02:32:55.229Z,68.10
2018-03-04T02:33:55.187Z,68.10
2018-03-04T02:34:55.160Z,67.81
2018-03-04T02:35:55.135Z,68.00
2018-03-04T02:36:55.152Z,67.81
2018-03-04T02:37:55.425Z,68.00
2018-03-04T02:38:55.041Z,67.43
2018-03-04T02:39:55.016Z,67.91
2018-03-04T02:40:54.987Z,68.00
2018-03-04T02:41:54.951Z,68.10
2018-03-04T02:42:54.921Z,68.19
2018-03-04T02:43:55.256Z,68.29
2018-03-04T02:44:54.866Z,68.19
2018-03-04T02:45:54.826Z,68.29
2018-03-04T02:46:54.803Z,68.66
2018-03-04T02:47:54.776Z,68.85
2018-03-04T02:48:54.745Z,68.47
2018-03-04T02:49:54.765Z,68.47
2018-03-04T02:50:54.989Z,68.85
2018-03-04T02:51:54.649Z,68.66
2018-03-04T02:52:54.626Z,68.57
2018-03-04T02:53:54.698Z,69.13
2018-03-04T02:55:54.536Z,69.79
2018-03-04T02:56:54.546Z,70.26
2018-03-04T02:57:54.823Z,70.26
2018-03-04T02:58:54.443Z,70.36
2018-03-04T03:00:54.586Z,70.73
2018-03-04T03:01:54.346Z,70.92
2018-03-04T03:02:54.323Z,70.92
2018-03-04T03:03:54.304Z,71.02
2018-03-04T03:04:54.556Z,71.40
2018-03-04T03:05:54.231Z,71.11
2018-03-04T03:06:54.254Z,71.58
2018-03-04T03:07:54.189Z,71.68
2018-03-04T03:08:54.133Z,72.06
2018-03-04T03:09:54.110Z,72.25
2018-03-04T03:10:54.073Z,71.96
2018-03-04T03:11:54.349Z,71.96
2018-03-04T03:12:54.065Z,72.06
2018-03-04T03:13:53.979Z,72.49
2018-03-04T03:14:53.952Z,72.58
2018-03-04T03:15:53.918Z,72.30
2018-03-04T03:16:53.888Z,72.62
2018-03-04T03:17:53.858Z,72.49
2018-03-04T03:18:54.182Z,72.40
2018-03-04T03:19:53.808Z,72.30
2018-03-04T03:20:53.771Z,72.68
2018-03-04T03:21:53.746Z,72.58
2018-03-04T03:22:53.714Z,72.68
2018-03-04T03:23:53.733Z,72.30
2018-03-04T03:24:53.645Z,72.49
2018-03-04T03:25:53.916Z,72.68
2018-03-04T03:26:53.586Z,72.68
2018-03-04T03:27:53.553Z,72.49
2018-03-04T03:28:53.575Z,72.49
2018-03-04T03:29:53.491Z,72.40
2018-03-04T03:30:53.532Z,72.11
2018-03-04T03:31:53.733Z,72.21
2018-03-04T03:32:53.401Z,72.58
2018-03-04T03:33:53.423Z,71.92
2018-03-04T03:34:53.348Z,72.30
2018-03-04T03:35:53.324Z,71.55
2018-03-04T03:36:53.287Z,71.21
2018-03-04T03:37:53.562Z,71.21
2018-03-04T03:38:53.224Z,71.11
2018-03-04T03:39:53.243Z,70.83
2018-03-04T03:40:53.263Z,69.89
2018-03-04T03:41:53.139Z,70.17
2018-03-04T03:42:53.101Z,69.89
2018-03-04T03:43:53.363Z,69.79
2018-03-04T03:44:53.041Z,70.07
2018-03-04T03:46:53.432Z,69.42
2018-03-04T03:47:52.950Z,69.32
2018-03-04T03:48:52.910Z,69.13
2018-03-04T03:49:53.187Z,68.85
2018-03-04T03:50:53.158Z,68.76
2018-03-04T03:51:52.824Z,68.66
2018-03-04T03:52:52.896Z,68.95
2018-03-04T03:53:52.764Z,68.95
2018-03-04T03:54:52.728Z,69.13
2018-03-04T03:55:52.998Z,69.98
2018-03-04T03:56:52.676Z,69.79
2018-03-04T03:57:52.746Z,69.79
2018-03-04T03:58:52.605Z,69.42
2018-03-04T03:59:52.583Z,69.60
2018-03-04T04:00:52.547Z,69.42
2018-03-04T04:01:52.816Z,69.42
2018-03-04T04:02:52.543Z,69.04
2018-03-04T04:03:52.466Z,68.95
2018-03-04T04:04:52.427Z,68.76
2018-03-04T04:05:52.395Z,68.57
2018-03-04T04:06:52.474Z,68.76
2018-03-04T04:07:52.641Z,68.66
2018-03-04T04:08:52.306Z,68.57
2018-03-04T04:09:52.281Z,68.76
2018-03-04T04:10:52.345Z,68.47
2018-03-04T04:11:52.824Z,68.19
2018-03-04T04:12:52.195Z,68.95
2018-03-04T04:13:52.154Z,68.95
2018-03-04T04:14:52.431Z,68.57
2018-03-04T04:15:52.096Z,68.57
2018-03-04T04:16:52.073Z,68.19
2018-03-04T04:18:52.060Z,68.76
2018-03-04T04:20:51.946Z,68.47
2018-03-04T04:21:52.315Z,68.57
2018-03-04T04:22:51.899Z,68.38
2018-03-04T04:24:51.877Z,68.10
2018-03-04T04:25:51.803Z,68.00
2018-03-04T04:26:51.870Z,68.10
2018-03-04T04:27:51.736Z,68.00
2018-03-04T04:28:52.005Z,67.06
2018-03-04T04:29:51.674Z,67.43
2018-03-04T04:30:51.752Z,67.91
2018-03-04T04:31:51.719Z,67.81
2018-03-04T04:32:51.595Z,68.19
2018-03-04T04:33:51.574Z,67.06
2018-03-04T04:35:51.503Z,67.15
2018-03-04T04:36:51.824Z,67.25
2018-03-04T04:37:51.442Z,66.68
2018-03-04T04:38:51.465Z,66.40
2018-03-04T04:39:51.379Z,66.96
2018-03-04T04:40:51.350Z,66.96
2018-03-04T04:41:51.322Z,66.77
2018-03-04T04:42:51.287Z,66.77
2018-03-04T04:43:51.617Z,66.40
2018-03-04T04:44:51.335Z,67.06
2018-03-04T04:46:51.173Z,66.77
2018-03-04T04:47:51.137Z,66.40
2018-03-04T04:48:51.112Z,66.77
2018-03-04T04:49:51.135Z,67.06
2018-03-04T04:50:51.360Z,66.87
2018-03-04T04:51:51.014Z,67.15
2018-03-04T04:52:50.989Z,67.15
2018-03-04T04:53:51.027Z,66.68
2018-03-04T04:54:50.992Z,67.15
2018-03-04T04:55:50.908Z,67.15
2018-03-04T04:56:51.176Z,67.43
2018-03-04T04:57:50.842Z,67.25
2018-03-04T04:58:50.821Z,67.34
2018-03-04T04:59:50.784Z,67.15
2018-03-04T05:00:50.807Z,66.21
2018-03-04T05:01:50.726Z,66.21
2018-03-04T05:02:51.005Z,66.30
2018-03-04T05:03:50.669Z,66.21
2018-03-04T05:04:50.682Z,67.06
2018-03-04T05:05:50.612Z,66.77
2018-03-04T05:06:50.628Z,66.77
2018-03-04T05:07:50.549Z,66.96
2018-03-04T05:08:50.519Z,67.15
2018-03-04T05:09:50.483Z,67.06
2018-03-04T05:10:50.461Z,67.06
2018-03-04T05:11:50.483Z,67.06
2018-03-04T05:12:50.401Z,67.06
2018-03-04T05:13:50.372Z,66.77
2018-03-04T05:14:50.636Z,66.68
2018-03-04T05:15:50.413Z,66.96
2018-03-04T05:16:50.286Z,66.87
2018-03-04T05:17:50.245Z,66.68
2018-03-04T05:18:50.223Z,66.77
2018-03-04T05:19:50.187Z,67.25
2018-03-04T05:20:50.464Z,67.06
2018-03-04T05:21:50.184Z,66.96
2018-03-04T05:22:50.096Z,67.25
2018-03-04T05:23:50.077Z,67.25
2018-03-04T05:24:50.046Z,67.15
2018-03-04T05:25:50.021Z,66.87
2018-03-04T05:26:50.280Z,67.53
2018-03-04T05:27:50.054Z,67.53
2018-03-04T05:29:49.903Z,67.43
2018-03-04T05:30:49.871Z,67.34
2018-03-04T05:31:49.934Z,67.72
2018-03-04T05:32:49.802Z,67.15
2018-03-04T05:33:50.182Z,66.96
2018-03-04T05:34:49.744Z,67.06
2018-03-04T05:36:49.686Z,67.34
2018-03-04T05:37:49.708Z,67.43
2018-03-04T05:38:49.625Z,67.62
2018-03-04T05:39:49.615Z,67.15
2018-03-04T05:40:49.874Z,67.34
2018-03-04T05:41:49.543Z,68.10
2018-03-04T05:43:49.579Z,68.10
2018-03-04T05:44:49.456Z,68.29
2018-03-04T05:45:49.426Z,68.47
2018-03-04T05:46:49.390Z,68.04
2018-03-04T05:47:49.669Z,68.41
2018-03-04T05:48:49.688Z,67.81
2018-03-04T05:49:49.301Z,67.81
2018-03-04T05:50:49.277Z,67.34
2018-03-04T05:51:49.257Z,67.25
2018-03-04T05:52:49.219Z,67.25
2018-03-04T05:53:49.194Z,68.10
2018-03-04T05:54:49.509Z,67.91
2018-03-04T05:55:49.428Z,67.72
2018-03-04T05:56:49.099Z,68.10
2018-03-04T05:57:49.065Z,67.91
2018-03-04T05:58:49.195Z,67.91
2018-03-04T05:59:49.115Z,67.81
2018-03-04T06:00:49.000Z,68.38
2018-03-04T06:01:49.249Z,68.51
2018-03-04T06:02:48.925Z,67.72
2018-03-04T06:03:48.888Z,67.85
2018-03-04T06:04:49.216Z,67.34
2018-03-04T06:05:48.830Z,67.72
2018-03-04T06:06:48.809Z,67.43
2018-03-04T06:07:48.782Z,67.43
2018-03-04T06:08:49.050Z,67.34
2018-03-04T06:10:48.741Z,67.28
2018-03-04T06:11:48.653Z,66.90
2018-03-04T06:12:48.635Z,66.40
2018-03-04T06:13:48.605Z,66.77
2018-03-04T06:14:48.876Z,66.68
2018-03-04T06:15:48.544Z,66.34
2018-03-04T06:16:48.615Z,66.49
2018-03-04T06:18:48.506Z,66.30
2018-03-04T06:19:48.428Z,66.11
2018-03-04T06:21:48.718Z,66.24
2018-03-04T06:22:48.338Z,66.34
2018-03-04T06:23:48.355Z,66.43
2018-03-04T06:24:48.440Z,66.43
2018-03-04T06:25:48.244Z,66.81
2018-03-04T06:26:48.272Z,67.00
2018-03-04T06:27:48.546Z,67.47
2018-03-04T06:28:48.158Z,66.81
2018-03-04T06:34:48.337Z,66.24
2018-03-04T06:35:47.970Z,66.34
2018-03-04T06:37:47.897Z,66.02
2018-03-04T06:39:47.887Z,65.83
2018-03-04T06:40:47.876Z,66.24
2018-03-04T06:41:48.081Z,66.05
2018-03-04T06:42:47.744Z,66.05
2018-03-04T06:43:47.715Z,66.05
2018-03-04T06:44:47.797Z,65.86
2018-03-04T06:45:47.660Z,65.86
2018-03-04T06:46:47.632Z,66.24
2018-03-04T06:48:47.924Z,66.11
2018-03-04T06:49:47.545Z,65.96
2018-03-04T06:50:47.518Z,66.02
2018-03-04T06:51:47.487Z,66.15
2018-03-04T06:52:47.457Z,66.02
2018-03-04T06:54:47.741Z,65.86
2018-03-04T06:56:47.686Z,66.15
2018-03-04T06:57:47.316Z,65.77
2018-03-04T06:58:47.274Z,65.96
2018-03-04T06:59:47.246Z,65.67
2018-03-04T07:00:47.214Z,65.67
2018-03-04T07:01:47.489Z,65.77
2018-03-04T07:03:47.187Z,65.58
2018-03-04T07:04:47.100Z,65.48
2018-03-04T07:05:47.066Z,65.67
2018-03-04T07:06:47.059Z,65.67
2018-03-04T07:08:47.282Z,65.30
2018-03-04T07:09:47.011Z,65.01
2018-03-04T07:10:46.921Z,65.30
2018-03-04T07:11:46.892Z,65.30
2018-03-04T07:12:46.871Z,65.20
2018-03-04T07:14:47.163Z,65.11
2018-03-04T07:15:47.232Z,64.64
2018-03-04T07:16:46.754Z,64.45
2018-03-04T07:17:46.720Z,64.26
2018-03-04T07:18:46.690Z,63.89
2018-03-04T07:19:46.659Z,64.36
2018-03-04T07:20:46.634Z,64.92
2018-03-04T07:21:46.958Z,65.20
2018-03-04T07:22:46.673Z,64.92
2018-03-04T07:24:46.573Z,64.73
2018-03-04T07:26:46.458Z,64.17
2018-03-04T07:27:46.500Z,64.17
2018-03-04T07:28:46.935Z,64.17
2018-03-04T07:29:46.423Z,63.98
2018-03-04T07:30:46.360Z,63.98
2018-03-04T07:31:46.322Z,64.26
2018-03-04T07:32:46.286Z,64.54
2018-03-04T07:33:46.364Z,64.45
2018-03-04T07:34:46.643Z,64.83
2018-03-04T07:35:46.205Z,64.83
2018-03-04T07:36:46.176Z,65.20
2018-03-04T07:37:46.147Z,64.54
2018-03-04T07:38:46.111Z,64.17
2018-03-04T07:39:46.139Z,64.17
2018-03-04T07:40:46.363Z,64.07
2018-03-04T07:41:46.030Z,63.98
2018-03-04T07:42:45.995Z,64.17
2018-03-04T07:43:46.057Z,64.07
2018-03-04T07:44:46.018Z,64.26
2018-03-04T07:45:46.049Z,65.11
2018-03-04T07:46:46.188Z,64.83
2018-03-04T07:47:45.930Z,64.36
2018-03-04T07:48:45.907Z,65.11
2018-03-04T07:49:45.870Z,64.36
2018-03-04T07:50:45.843Z,64.36
2018-03-04T07:51:45.861Z,64.36
2018-03-04T07:52:46.020Z,64.92
2018-03-04T07:53:45.745Z,65.48
2018-03-04T07:56:45.596Z,65.48
2018-03-04T07:57:45.677Z,64.36
2018-03-04T07:58:45.849Z,64.64
2018-03-04T07:59:45.516Z,64.36
2018-03-04T08:00:45.483Z,65.11
2018-03-04T08:01:45.456Z,64.26
2018-03-04T08:02:45.484Z,64.26
2018-03-04T08:03:45.398Z,63.98
2018-03-04T08:04:45.672Z,64.36
2018-03-04T08:05:45.342Z,64.36
2018-03-04T08:06:45.313Z,63.70
2018-03-04T08:07:45.292Z,64.07
2018-03-04T08:08:45.361Z,63.60
2018-03-04T08:09:45.236Z,64.07
2018-03-04T08:10:45.200Z,64.36
2018-03-04T08:11:45.482Z,63.60
2018-03-04T08:12:45.156Z,63.89
2018-03-04T08:14:45.197Z,64.45
2018-03-04T08:15:45.069Z,64.26
2018-03-04T08:16:45.040Z,63.98
2018-03-04T08:17:45.015Z,64.26
2018-03-04T08:18:45.286Z,63.63
2018-03-04T08:19:45.049Z,63.22
2018-03-04T08:20:44.929Z,63.16
2018-03-04T08:21:44.908Z,62.78
2018-03-04T08:22:44.973Z,63.03
2018-03-04T08:23:44.848Z,63.22
2018-03-04T08:24:44.940Z,62.94
2018-03-04T08:25:45.193Z,63.35
2018-03-04T08:26:44.762Z,63.26
2018-03-04T08:27:44.727Z,63.07
2018-03-04T08:28:44.699Z,62.50
2018-03-04T08:29:44.731Z,62.50
2018-03-04T08:30:44.696Z,62.59
2018-03-04T08:31:44.615Z,62.88
2018-03-04T08:32:44.892Z,62.69
2018-03-04T08:33:44.555Z,62.78
2018-03-04T08:34:44.588Z,62.50
2018-03-04T08:35:44.560Z,62.50
2018-03-04T08:36:44.488Z,62.31
2018-03-04T08:37:44.445Z,62.40
2018-03-04T08:38:44.431Z,62.40
2018-03-04T08:39:44.907Z,62.40
2018-03-04T08:40:45.072Z,62.40
2018-03-04T08:41:44.441Z,61.93
2018-03-04T08:42:44.318Z,61.65
2018-03-04T08:43:44.290Z,61.93
2018-03-04T08:44:45.377Z,62.02
2018-03-04T08:45:44.231Z,62.02
2018-03-04T08:46:44.563Z,61.74
2018-03-04T08:47:44.235Z,61.55
2018-03-04T08:48:44.159Z,61.36
2018-03-04T08:50:44.099Z,61.18
2018-03-04T08:51:44.075Z,60.24
2018-03-04T08:52:44.395Z,60.52
2018-03-04T08:53:44.026Z,60.74
2018-03-04T08:54:44.000Z,60.36
2018-03-04T08:55:43.964Z,60.08
2018-03-04T08:56:44.038Z,59.70
2018-03-04T08:58:44.271Z,58.75
2018-03-04T08:59:43.969Z,58.56
2018-03-04T09:01:43.805Z,58.75
2018-03-04T09:02:43.780Z,58.00
2018-03-04T09:03:43.805Z,57.24
2018-03-04T09:04:44.038Z,57.84
2018-03-04T09:05:43.747Z,57.27
2018-03-04T09:06:43.740Z,56.45
2018-03-04T09:07:43.706Z,55.22
2018-03-04T09:08:43.626Z,53.07
2018-03-04T09:09:43.609Z,51.93
2018-03-04T09:11:43.853Z,51.75
2018-03-04T09:12:43.527Z,51.11
2018-03-04T09:13:43.548Z,49.98
2018-03-04T09:14:43.486Z,49.03
2018-03-04T09:15:43.464Z,48.93
2018-03-04T09:16:43.526Z,48.55
2018-03-04T09:17:43.719Z,48.65
2018-03-04T09:19:43.493Z,49.57
2018-03-04T09:20:43.345Z,51.18
2018-03-04T09:22:43.293Z,51.91
2018-03-04T09:23:43.278Z,52.00
2018-03-04T09:24:43.599Z,52.57
2018-03-04T09:25:43.230Z,52.92
2018-03-04T09:27:43.177Z,53.96
2018-03-04T09:28:43.161Z,54.15
2018-03-04T09:29:43.143Z,55.19
2018-03-04T09:30:43.181Z,55.00
2018-03-04T09:31:43.450Z,55.41
2018-03-04T09:32:43.067Z,55.22
2018-03-04T09:33:43.047Z,55.12
2018-03-04T09:34:43.023Z,55.31
2018-03-04T09:35:43.009Z,54.37
2018-03-04T09:36:43.079Z,53.45
2018-03-04T09:37:42.955Z,52.95
2018-03-04T09:38:43.332Z,53.26
2018-03-04T09:39:42.915Z,53.17
2018-03-04T09:40:42.991Z,52.69
2018-03-04T09:41:42.910Z,52.50
2018-03-04T09:42:42.848Z,52.31
2018-03-04T09:43:42.854Z,52.60
2018-03-04T09:46:43.055Z,52.31
2018-03-04T09:47:42.788Z,52.60
2018-03-04T09:48:42.716Z,52.60
2018-03-04T09:49:42.695Z,52.60
2018-03-04T09:50:42.723Z,53.05
2018-03-04T09:51:42.649Z,52.88
2018-03-04T09:52:42.679Z,52.69
2018-03-04T09:53:42.901Z,53.14
2018-03-04T09:54:42.671Z,53.23
2018-03-04T09:55:42.560Z,52.22
2018-03-04T09:56:42.587Z,51.84
2018-03-04T09:57:42.572Z,51.75
2018-03-04T09:58:42.492Z,52.12
2018-03-04T10:00:42.754Z,50.99
2018-03-04T10:01:42.483Z,50.73
2018-03-04T10:02:42.461Z,50.45
2018-03-04T10:03:43.094Z,49.98
2018-03-04T10:04:42.379Z,49.69
2018-03-04T10:05:42.351Z,50.16
2018-03-04T10:06:42.337Z,50.19
2018-03-04T10:08:42.642Z,48.86
2018-03-04T10:09:42.284Z,48.29
2018-03-04T10:10:42.249Z,46.90
2018-03-04T10:11:42.230Z,46.23
2018-03-04T10:12:42.208Z,46.16
2018-03-04T10:13:43.498Z,46.14
2018-03-04T10:14:42.223Z,46.07
2018-03-04T10:15:42.451Z,44.74
2018-03-04T10:17:42.124Z,44.15
2018-03-04T10:18:42.176Z,45.00
2018-03-04T10:19:42.127Z,45.64
2018-03-04T10:20:42.058Z,46.04
2018-03-04T10:21:42.402Z,46.90
2018-03-04T10:22:42.019Z,46.99
2018-03-04T10:23:42.008Z,47.72
2018-03-04T10:24:41.985Z,47.66
2018-03-04T10:25:42.073Z,46.61
2018-03-04T10:26:41.953Z,46.45
2018-03-04T10:28:42.322Z,44.84
2018-03-04T10:29:41.905Z,44.36
2018-03-04T10:30:41.876Z,42.86
2018-03-04T10:31:41.866Z,42.18
2018-03-04T10:32:41.843Z,43.32
2018-03-04T10:33:42.176Z,44.24
2018-03-04T10:34:42.110Z,44.93
2018-03-04T10:35:41.789Z,43.43
2018-03-04T10:36:41.771Z,43.04
2018-03-04T10:37:41.761Z,42.85
2018-03-04T10:38:41.854Z,43.04
2018-03-04T10:39:41.954Z,43.79
2018-03-04T10:40:42.010Z,44.20
2018-03-04T10:41:41.737Z,43.05
2018-03-04T10:42:41.678Z,42.20
2018-03-04T10:43:41.660Z,41.82
2018-03-04T10:44:41.989Z,42.01
2018-03-04T10:45:41.726Z,42.47
2018-03-04T10:46:41.903Z,43.41
2018-03-04T10:47:41.649Z,45.12
2018-03-04T10:48:41.584Z,44.93
2018-03-04T10:49:41.556Z,44.15
2018-03-04T10:50:41.542Z,44.27
2018-03-04T10:51:41.630Z,44.93
2018-03-04T10:52:41.815Z,44.01
2018-03-04T10:53:41.851Z,42.94
2018-03-04T10:54:41.579Z,43.70
2018-03-04T10:55:41.482Z,43.53
2018-03-04T10:56:41.449Z,44.20
2018-03-04T10:58:41.755Z,43.62
2018-03-04T10:59:41.504Z,42.32
2018-03-04T11:00:41.430Z,41.58
2018-03-04T11:01:41.371Z,40.16
2018-03-04T11:02:41.346Z,39.13
2018-03-04T11:03:41.344Z,38.10
2018-03-04T11:04:41.334Z,37.08
2018-03-04T11:08:41.712Z,36.57
2018-03-04T11:10:41.353Z,36.85
2018-03-04T11:11:41.220Z,37.48
2018-03-04T11:12:41.205Z,39.76
2018-03-04T11:13:42.492Z,40.40
2018-03-04T11:14:41.171Z,41.06
2018-03-04T11:15:41.460Z,41.46
2018-03-04T11:16:41.154Z,41.58
2018-03-04T11:17:41.132Z,40.63
2018-03-04T11:18:41.117Z,39.89
2018-03-04T11:19:41.160Z,38.94
2018-03-04T11:20:41.096Z,38.64
2018-03-04T11:21:41.079Z,39.32
2018-03-04T11:23:41.354Z,39.51
2018-03-04T11:24:41.033Z,40.34
2018-03-04T11:25:41.117Z,41.37
2018-03-04T11:27:41.040Z,43.24
2018-03-04T11:28:41.024Z,43.82
2018-03-04T11:29:40.969Z,44.85
2018-03-04T11:30:41.251Z,45.97
2018-03-04T11:31:40.985Z,46.19
2018-03-04T11:32:40.937Z,46.26
2018-03-04T11:33:40.904Z,46.26
2018-03-04T11:34:40.897Z,46.45
2018-03-04T11:35:40.882Z,46.92
2018-03-04T11:36:40.867Z,47.71
2018-03-04T11:37:41.200Z,47.13
2018-03-04T11:38:40.833Z,47.04
2018-03-04T11:39:40.811Z,46.73
2018-03-04T11:40:40.801Z,47.77
2018-03-04T11:41:40.787Z,47.49
2018-03-04T11:42:40.765Z,48.15
2018-03-04T11:44:41.085Z,48.22
2018-03-04T11:45:40.847Z,48.60
2018-03-04T11:46:40.711Z,49.17
2018-03-04T11:47:40.696Z,49.55
2018-03-04T11:48:41.399Z,50.02
2018-03-04T11:49:40.674Z,49.93
2018-03-04T11:50:40.688Z,50.59
2018-03-04T11:51:40.620Z,50.12
2018-03-04T11:52:40.612Z,50.97
2018-03-04T11:53:40.585Z,51.07
2018-03-04T11:54:40.567Z,50.97
2018-03-04T11:55:40.556Z,51.14
2018-03-04T11:56:40.885Z,51.14
2018-03-04T11:57:40.521Z,52.18
2018-03-04T11:58:41.104Z,52.27
2018-03-04T12:00:40.468Z,51.89
2018-03-04T12:01:40.450Z,51.99
2018-03-04T12:02:40.732Z,51.70
2018-03-04T12:03:40.410Z,51.70
2018-03-04T12:05:40.420Z,51.80
2018-03-04T12:08:40.719Z,51.23
2018-03-04T12:10:40.286Z,51.92
2018-03-04T12:11:40.307Z,51.92
2018-03-04T12:12:40.247Z,51.45
2018-03-04T12:13:40.217Z,51.64
2018-03-04T12:14:40.567Z,51.26
2018-03-04T12:15:40.188Z,51.92
2018-03-04T12:16:40.167Z,52.01
2018-03-04T12:17:40.499Z,51.35
2018-03-04T12:18:40.126Z,50.88
2018-03-04T12:19:40.111Z,52.11
2018-03-04T12:21:40.122Z,51.18
2018-03-04T12:22:40.045Z,51.18
2018-03-04T12:23:40.077Z,50.78
2018-03-04T12:24:40.020Z,51.16
2018-03-04T12:25:39.996Z,50.62
2018-03-04T12:26:39.970Z,50.43
2018-03-04T12:28:40.233Z,47.85
2018-03-04T12:30:40.008Z,43.79
2018-03-04T12:32:39.862Z,41.79
2018-03-04T12:33:39.838Z,42.98
2018-03-04T12:34:39.821Z,45.05
2018-03-04T12:35:40.211Z,46.94
2018-03-04T12:36:39.847Z,48.18
2018-03-04T12:37:39.869Z,49.01
2018-03-04T12:38:39.754Z,49.01
2018-03-04T12:39:39.731Z,49.57
2018-03-04T12:40:39.715Z,49.86
2018-03-04T12:41:39.816Z,49.95
2018-03-04T12:42:39.981Z,50.21
2018-03-04T12:43:39.662Z,51.26
2018-03-04T12:44:39.652Z,51.64
2018-03-04T12:45:39.634Z,52.11
2018-03-04T12:46:39.614Z,52.01
2018-03-04T12:47:39.743Z,52.29
2018-03-04T12:49:39.856Z,51.82
2018-03-04T12:50:39.544Z,52.11
2018-03-04T12:51:39.524Z,52.01
2018-03-04T12:52:40.099Z,51.92
2018-03-04T12:53:39.658Z,51.73
2018-03-04T12:54:39.521Z,52.01
2018-03-04T12:55:39.453Z,51.82
2018-03-04T12:56:39.724Z,51.95
2018-03-04T12:57:39.414Z,51.92
2018-03-04T12:58:39.541Z,52.39
2018-03-04T12:59:39.373Z,52.01
2018-03-04T13:00:39.351Z,52.48
2018-03-04T13:01:39.375Z,52.89
2018-03-04T13:02:39.325Z,52.68
2018-03-04T13:03:39.591Z,52.77
2018-03-04T13:04:39.322Z,52.58
2018-03-04T13:05:39.260Z,52.29
2018-03-04T13:06:39.237Z,52.68
2018-03-04T13:07:39.249Z,52.80
2018-03-04T13:08:39.194Z,53.08
2018-03-04T13:10:39.600Z,52.58
2018-03-04T13:11:39.134Z,52.20
2018-03-04T13:12:39.122Z,52.39
2018-03-04T13:13:39.108Z,52.58
2018-03-04T13:14:39.077Z,52.68
2018-03-04T13:15:39.125Z,52.39
2018-03-04T13:16:39.335Z,52.51
2018-03-04T13:17:39.023Z,51.95
2018-03-04T13:18:39.003Z,51.85
2018-03-04T13:19:38.985Z,51.40
2018-03-04T13:20:38.966Z,51.09
2018-03-04T13:22:39.273Z,51.66
2018-03-04T13:23:38.976Z,51.37
2018-03-04T13:24:38.879Z,52.14
2018-03-04T13:25:38.964Z,51.09
2018-03-04T13:26:38.852Z,51.18
2018-03-04T13:27:38.827Z,50.99
2018-03-04T13:28:39.104Z,50.99
2018-03-04T13:29:38.785Z,51.18
2018-03-04T13:30:38.871Z,51.37
2018-03-04T13:31:38.744Z,52.42
2018-03-04T13:32:38.732Z,52.04
2018-03-04T13:34:39.039Z,52.04
2018-03-04T13:35:38.725Z,52.04
2018-03-04T13:36:38.656Z,51.95
2018-03-04T13:38:38.910Z,51.66
2018-03-04T13:39:38.604Z,51.37
2018-03-04T13:40:38.913Z,50.74
2018-03-04T13:41:38.847Z,51.09
2018-03-04T13:42:38.540Z,50.90
2018-03-04T13:43:38.523Z,50.90
2018-03-04T13:44:38.496Z,51.31
2018-03-04T13:45:38.481Z,50.90
2018-03-04T13:47:38.743Z,51.09
2018-03-04T13:48:38.427Z,51.28
2018-03-04T13:49:38.405Z,51.09
2018-03-04T13:50:38.388Z,51.28
2018-03-04T13:51:38.364Z,51.18
2018-03-04T13:53:38.680Z,51.37
2018-03-04T13:54:38.300Z,51.18
2018-03-04T13:55:38.284Z,51.18
2018-03-04T13:59:38.604Z,52.04
2018-03-04T14:00:38.182Z,52.14
2018-03-04T14:01:38.166Z,51.85
2018-03-04T14:02:38.147Z,51.85
2018-03-04T14:03:38.431Z,52.04
2018-03-04T14:04:38.119Z,52.23
2018-03-04T14:05:38.137Z,52.14
2018-03-04T14:08:38.390Z,52.14
2018-03-04T14:09:38.016Z,52.33
2018-03-04T14:10:38.008Z,52.42
2018-03-04T14:11:37.967Z,52.70
2018-03-04T14:12:37.948Z,52.89
2018-03-04T14:13:37.926Z,52.42
2018-03-04T14:14:37.957Z,52.23
2018-03-04T14:15:38.194Z,52.04
2018-03-04T14:16:37.970Z,52.14
2018-03-04T14:17:37.873Z,52.33
2018-03-04T14:18:37.826Z,52.23
2018-03-04T14:19:37.814Z,52.61
2018-03-04T14:21:38.131Z,53.08
2018-03-04T14:22:37.804Z,52.89
2018-03-04T14:23:37.728Z,53.37
2018-03-04T14:24:37.715Z,53.46
2018-03-04T14:25:37.694Z,53.46
2018-03-04T14:26:37.816Z,53.18
2018-03-04T14:27:37.958Z,53.37
2018-03-04T14:28:37.625Z,53.18
2018-03-04T14:29:37.610Z,53.65
2018-03-04T14:30:37.598Z,53.37
2018-03-04T14:31:37.569Z,53.27